sensor_id;sensor_type;location;lat;lon;timestamp;temperature;humidity
30534;DHT22;17318;52.390;9.754;2023-04-25T00:01:46;10.30;97.60
30534;DHT22;17318;52.390;9.754;2023-04-25T00:04:11;10.30;97.50
30534;DHT22;17318;52.390;9.754;2023-04-25T00:06:37;10.40;97.50
30534;DHT22;17318;52.390;9.754;2023-04-25T00:09:04;10.30;97.50
30534;DHT22;17318;52.390;9.754;2023-04-25T00:11:33;10.10;97.80
30534;DHT22;17318;52.390;9.754;2023-04-25T00:13:58;10.10;97.90
30534;DHT22;17318;52.390;9.754;2023-04-25T00:16:25;10.20;97.80
30534;DHT22;17318;52.390;9.754;2023-04-25T00:18:52;9.90;98.40
30534;DHT22;17318;52.390;9.754;2023-04-25T00:21:20;9.90;98.60
30534;DHT22;17318;52.390;9.754;2023-04-25T00:23:46;10.10;98.20
30534;DHT22;17318;52.390;9.754;2023-04-25T00:26:12;10.10;97.80
30534;DHT22;17318;52.390;9.754;2023-04-25T00:28:39;10.00;98.00
30534;DHT22;17318;52.390;9.754;2023-04-25T00:31:05;10.00;98.00
30534;DHT22;17318;52.390;9.754;2023-04-25T00:33:31;10.10;97.70
30534;DHT22;17318;52.390;9.754;2023-04-25T00:35:57;10.20;97.70
30534;DHT22;17318;52.390;9.754;2023-04-25T00:38:22;10.20;97.70
30534;DHT22;17318;52.390;9.754;2023-04-25T00:40:48;10.20;97.50
30534;DHT22;17318;52.390;9.754;2023-04-25T00:43:13;10.10;97.70
30534;DHT22;17318;52.390;9.754;2023-04-25T00:45:40;10.20;97.60
30534;DHT22;17318;52.390;9.754;2023-04-25T00:48:06;10.10;97.60
30534;DHT22;17318;52.390;9.754;2023-04-25T00:50:33;10.10;97.80
30534;DHT22;17318;52.390;9.754;2023-04-25T00:52:59;10.10;97.70
30534;DHT22;17318;52.390;9.754;2023-04-25T00:55:25;10.00;97.80
30534;DHT22;17318;52.390;9.754;2023-04-25T00:57:51;10.10;97.60
30534;DHT22;17318;52.390;9.754;2023-04-25T01:00:18;10.00;97.80
30534;DHT22;17318;52.390;9.754;2023-04-25T01:02:44;10.10;97.80
30534;DHT22;17318;52.390;9.754;2023-04-25T01:05:11;10.00;97.80
30534;DHT22;17318;52.390;9.754;2023-04-25T01:07:37;9.90;98.80
30534;DHT22;17318;52.390;9.754;2023-04-25T01:10:04;10.10;97.70
30534;DHT22;17318;52.390;9.754;2023-04-25T01:12:30;10.10;97.70
30534;DHT22;17318;52.390;9.754;2023-04-25T01:14:56;10.00;97.90
30534;DHT22;17318;52.390;9.754;2023-04-25T01:17:22;9.90;98.50
30534;DHT22;17318;52.390;9.754;2023-04-25T01:19:47;10.00;98.10
30534;DHT22;17318;52.390;9.754;2023-04-25T01:22:15;10.00;98.00
30534;DHT22;17318;52.390;9.754;2023-04-25T01:24:41;10.00;97.90
30534;DHT22;17318;52.390;9.754;2023-04-25T01:27:07;10.10;97.80
30534;DHT22;17318;52.390;9.754;2023-04-25T01:29:33;10.00;98.00
30534;DHT22;17318;52.390;9.754;2023-04-25T01:32:00;10.00;98.00
30534;DHT22;17318;52.390;9.754;2023-04-25T01:34:26;9.90;98.60
30534;DHT22;17318;52.390;9.754;2023-04-25T01:36:53;9.90;98.70
30534;DHT22;17318;52.390;9.754;2023-04-25T01:39:19;10.00;98.30
30534;DHT22;17318;52.390;9.754;2023-04-25T01:41:46;10.00;98.30
30534;DHT22;17318;52.390;9.754;2023-04-25T01:44:13;9.80;99.00
30534;DHT22;17318;52.390;9.754;2023-04-25T01:46:39;9.80;99.00
30534;DHT22;17318;52.390;9.754;2023-04-25T01:49:05;9.70;99.20
30534;DHT22;17318;52.390;9.754;2023-04-25T01:51:31;9.80;99.30
30534;DHT22;17318;52.390;9.754;2023-04-25T01:53:57;9.90;99.00
30534;DHT22;17318;52.390;9.754;2023-04-25T01:56:23;10.10;98.30
30534;DHT22;17318;52.390;9.754;2023-04-25T01:58:49;9.70;99.40
30534;DHT22;17318;52.390;9.754;2023-04-25T02:01:14;9.70;99.50
30534;DHT22;17318;52.390;9.754;2023-04-25T02:03:40;9.70;99.80
30534;DHT22;17318;52.390;9.754;2023-04-25T02:06:06;9.50;99.90
30534;DHT22;17318;52.390;9.754;2023-04-25T02:08:31;9.60;99.90
30534;DHT22;17318;52.390;9.754;2023-04-25T02:10:57;9.70;99.90
30534;DHT22;17318;52.390;9.754;2023-04-25T02:13:23;9.80;99.90
30534;DHT22;17318;52.390;9.754;2023-04-25T02:15:49;9.70;99.90
30534;DHT22;17318;52.390;9.754;2023-04-25T02:18:14;9.70;99.90
30534;DHT22;17318;52.390;9.754;2023-04-25T02:20:42;9.80;99.90
30534;DHT22;17318;52.390;9.754;2023-04-25T02:23:08;9.40;99.90
30534;DHT22;17318;52.390;9.754;2023-04-25T02:25:33;9.40;99.90
30534;DHT22;17318;52.390;9.754;2023-04-25T02:27:59;9.50;99.90
30534;DHT22;17318;52.390;9.754;2023-04-25T02:30:25;9.40;99.90
30534;DHT22;17318;52.390;9.754;2023-04-25T02:32:51;9.30;99.90
30534;DHT22;17318;52.390;9.754;2023-04-25T02:35:16;9.10;99.90
30534;DHT22;17318;52.390;9.754;2023-04-25T02:37:42;9.30;99.90
30534;DHT22;17318;52.390;9.754;2023-04-25T02:40:09;9.30;99.90
30534;DHT22;17318;52.390;9.754;2023-04-25T02:42:35;9.10;99.90
30534;DHT22;17318;52.390;9.754;2023-04-25T02:45:01;9.10;99.90
30534;DHT22;17318;52.390;9.754;2023-04-25T02:47:27;9.20;99.90
30534;DHT22;17318;52.390;9.754;2023-04-25T02:49:53;9.30;99.90
30534;DHT22;17318;52.390;9.754;2023-04-25T02:52:19;9.20;99.90
30534;DHT22;17318;52.390;9.754;2023-04-25T02:54:44;9.40;99.90
30534;DHT22;17318;52.390;9.754;2023-04-25T02:57:10;9.50;99.80
30534;DHT22;17318;52.390;9.754;2023-04-25T02:59:35;9.10;99.90
30534;DHT22;17318;52.390;9.754;2023-04-25T03:02:01;9.20;99.80
30534;DHT22;17318;52.390;9.754;2023-04-25T03:04:27;9.20;99.90
30534;DHT22;17318;52.390;9.754;2023-04-25T03:06:53;9.30;99.90
30534;DHT22;17318;52.390;9.754;2023-04-25T03:09:19;9.50;99.80
30534;DHT22;17318;52.390;9.754;2023-04-25T03:11:45;9.30;99.90
30534;DHT22;17318;52.390;9.754;2023-04-25T03:14:11;9.30;99.90
30534;DHT22;17318;52.390;9.754;2023-04-25T03:16:37;9.50;99.60
30534;DHT22;17318;52.390;9.754;2023-04-25T03:19:03;9.50;99.80
30534;DHT22;17318;52.390;9.754;2023-04-25T03:21:33;9.50;99.70
30534;DHT22;17318;52.390;9.754;2023-04-25T03:24:00;9.50;99.70
30534;DHT22;17318;52.390;9.754;2023-04-25T03:26:25;9.50;99.90
30534;DHT22;17318;52.390;9.754;2023-04-25T03:28:51;9.30;99.90
30534;DHT22;17318;52.390;9.754;2023-04-25T03:31:17;9.30;99.90
30534;DHT22;17318;52.390;9.754;2023-04-25T03:33:42;9.30;99.90
30534;DHT22;17318;52.390;9.754;2023-04-25T03:36:08;9.60;99.90
30534;DHT22;17318;52.390;9.754;2023-04-25T03:38:34;9.70;99.70
30534;DHT22;17318;52.390;9.754;2023-04-25T03:41:01;9.60;99.90
30534;DHT22;17318;52.390;9.754;2023-04-25T03:43:27;9.50;99.90
30534;DHT22;17318;52.390;9.754;2023-04-25T03:45:53;9.60;99.90
30534;DHT22;17318;52.390;9.754;2023-04-25T03:48:19;9.60;99.90
30534;DHT22;17318;52.390;9.754;2023-04-25T03:50:47;9.60;99.90
30534;DHT22;17318;52.390;9.754;2023-04-25T03:53:12;9.60;99.80
30534;DHT22;17318;52.390;9.754;2023-04-25T03:55:38;9.40;99.90
30534;DHT22;17318;52.390;9.754;2023-04-25T03:58:04;9.50;99.90
30534;DHT22;17318;52.390;9.754;2023-04-25T04:00:30;9.50;99.90
30534;DHT22;17318;52.390;9.754;2023-04-25T04:02:56;9.60;99.80
30534;DHT22;17318;52.390;9.754;2023-04-25T04:05:21;9.70;99.50
30534;DHT22;17318;52.390;9.754;2023-04-25T04:07:47;9.50;99.20
30534;DHT22;17318;52.390;9.754;2023-04-25T04:10:13;9.30;99.00
30534;DHT22;17318;52.390;9.754;2023-04-25T04:12:38;9.40;98.90
30534;DHT22;17318;52.390;9.754;2023-04-25T04:15:05;9.50;98.60
30534;DHT22;17318;52.390;9.754;2023-04-25T04:17:32;9.50;98.40
30534;DHT22;17318;52.390;9.754;2023-04-25T04:19:57;9.50;98.40
30534;DHT22;17318;52.390;9.754;2023-04-25T04:22:24;9.60;98.30
30534;DHT22;17318;52.390;9.754;2023-04-25T04:24:50;9.40;98.50
30534;DHT22;17318;52.390;9.754;2023-04-25T04:27:19;9.60;98.30
30534;DHT22;17318;52.390;9.754;2023-04-25T04:29:45;9.60;98.30
30534;DHT22;17318;52.390;9.754;2023-04-25T04:32:12;9.60;98.10
30534;DHT22;17318;52.390;9.754;2023-04-25T04:34:37;9.60;97.40
30534;DHT22;17318;52.390;9.754;2023-04-25T04:37:05;9.40;97.50
30534;DHT22;17318;52.390;9.754;2023-04-25T04:39:33;9.50;97.50
30534;DHT22;17318;52.390;9.754;2023-04-25T04:41:59;9.50;97.60
30534;DHT22;17318;52.390;9.754;2023-04-25T04:44:26;9.30;97.30
30534;DHT22;17318;52.390;9.754;2023-04-25T04:46:52;9.40;97.40
30534;DHT22;17318;52.390;9.754;2023-04-25T04:49:17;9.50;97.20
30534;DHT22;17318;52.390;9.754;2023-04-25T04:51:43;9.40;97.50
30534;DHT22;17318;52.390;9.754;2023-04-25T04:54:12;9.30;97.60
30534;DHT22;17318;52.390;9.754;2023-04-25T04:56:38;9.50;97.40
30534;DHT22;17318;52.390;9.754;2023-04-25T04:59:04;9.40;96.90
30534;DHT22;17318;52.390;9.754;2023-04-25T05:01:30;9.30;97.20
30534;DHT22;17318;52.390;9.754;2023-04-25T05:03:56;9.50;96.70
30534;DHT22;17318;52.390;9.754;2023-04-25T05:06:26;9.50;96.50
30534;DHT22;17318;52.390;9.754;2023-04-25T05:08:52;9.40;96.70
30534;DHT22;17318;52.390;9.754;2023-04-25T05:11:19;9.40;96.70
30534;DHT22;17318;52.390;9.754;2023-04-25T05:13:44;9.20;96.60
30534;DHT22;17318;52.390;9.754;2023-04-25T05:16:11;9.30;96.80
30534;DHT22;17318;52.390;9.754;2023-04-25T05:18:38;9.50;96.60
30534;DHT22;17318;52.390;9.754;2023-04-25T05:21:04;9.60;96.20
30534;DHT22;17318;52.390;9.754;2023-04-25T05:23:31;9.40;96.30
30534;DHT22;17318;52.390;9.754;2023-04-25T05:25:56;9.60;96.20
30534;DHT22;17318;52.390;9.754;2023-04-25T05:28:22;9.70;96.20
30534;DHT22;17318;52.390;9.754;2023-04-25T05:30:48;9.50;96.10
30534;DHT22;17318;52.390;9.754;2023-04-25T05:33:13;9.60;96.10
30534;DHT22;17318;52.390;9.754;2023-04-25T05:35:39;9.40;95.80
30534;DHT22;17318;52.390;9.754;2023-04-25T05:38:05;9.40;95.80
30534;DHT22;17318;52.390;9.754;2023-04-25T05:40:31;9.50;95.70
30534;DHT22;17318;52.390;9.754;2023-04-25T05:42:56;9.50;95.70
30534;DHT22;17318;52.390;9.754;2023-04-25T05:45:22;9.70;95.50
30534;DHT22;17318;52.390;9.754;2023-04-25T05:47:48;9.70;95.30
30534;DHT22;17318;52.390;9.754;2023-04-25T05:50:14;9.70;95.50
30534;DHT22;17318;52.390;9.754;2023-04-25T05:52:39;9.70;94.90
30534;DHT22;17318;52.390;9.754;2023-04-25T05:55:05;9.80;94.70
30534;DHT22;17318;52.390;9.754;2023-04-25T05:57:31;9.90;94.60
30534;DHT22;17318;52.390;9.754;2023-04-25T05:59:57;9.80;94.50
30534;DHT22;17318;52.390;9.754;2023-04-25T06:02:23;9.90;94.60
30534;DHT22;17318;52.390;9.754;2023-04-25T06:04:50;10.10;94.10
30534;DHT22;17318;52.390;9.754;2023-04-25T06:07:16;10.20;93.80
30534;DHT22;17318;52.390;9.754;2023-04-25T06:09:43;10.10;93.70
30534;DHT22;17318;52.390;9.754;2023-04-25T06:12:08;10.20;93.60
30534;DHT22;17318;52.390;9.754;2023-04-25T06:14:34;10.10;93.70
30534;DHT22;17318;52.390;9.754;2023-04-25T06:17:00;10.00;93.70
30534;DHT22;17318;52.390;9.754;2023-04-25T06:19:32;10.00;93.60
30534;DHT22;17318;52.390;9.754;2023-04-25T06:21:58;9.90;94.10
30534;DHT22;17318;52.390;9.754;2023-04-25T06:24:24;10.10;93.90
30534;DHT22;17318;52.390;9.754;2023-04-25T06:26:49;10.20;93.70
30534;DHT22;17318;52.390;9.754;2023-04-25T06:29:15;10.20;93.20
30534;DHT22;17318;52.390;9.754;2023-04-25T06:31:41;10.20;93.10
30534;DHT22;17318;52.390;9.754;2023-04-25T06:34:06;10.20;93.30
30534;DHT22;17318;52.390;9.754;2023-04-25T06:36:32;10.20;93.10
30534;DHT22;17318;52.390;9.754;2023-04-25T06:38:58;10.30;93.20
30534;DHT22;17318;52.390;9.754;2023-04-25T06:41:23;10.30;93.00
30534;DHT22;17318;52.390;9.754;2023-04-25T06:43:49;10.30;93.30
30534;DHT22;17318;52.390;9.754;2023-04-25T06:46:15;10.50;92.90
30534;DHT22;17318;52.390;9.754;2023-04-25T06:48:41;10.60;92.50
30534;DHT22;17318;52.390;9.754;2023-04-25T06:51:06;10.60;92.40
30534;DHT22;17318;52.390;9.754;2023-04-25T06:53:32;10.50;92.20
30534;DHT22;17318;52.390;9.754;2023-04-25T06:55:57;10.60;92.30
30534;DHT22;17318;52.390;9.754;2023-04-25T06:58:23;10.90;92.10
30534;DHT22;17318;52.390;9.754;2023-04-25T07:00:49;11.10;91.90
30534;DHT22;17318;52.390;9.754;2023-04-25T07:03:15;11.10;91.80
30534;DHT22;17318;52.390;9.754;2023-04-25T07:05:44;11.20;90.90
30534;DHT22;17318;52.390;9.754;2023-04-25T07:08:11;11.20;91.30
30534;DHT22;17318;52.390;9.754;2023-04-25T07:10:37;11.40;90.90
30534;DHT22;17318;52.390;9.754;2023-04-25T07:13:02;11.20;90.90
30534;DHT22;17318;52.390;9.754;2023-04-25T07:15:28;11.30;91.00
30534;DHT22;17318;52.390;9.754;2023-04-25T07:17:53;11.20;90.60
30534;DHT22;17318;52.390;9.754;2023-04-25T07:20:19;10.90;90.40
30534;DHT22;17318;52.390;9.754;2023-04-25T07:22:45;10.80;90.80
30534;DHT22;17318;52.390;9.754;2023-04-25T07:25:11;10.80;90.70
30534;DHT22;17318;52.390;9.754;2023-04-25T07:27:36;10.60;91.10
30534;DHT22;17318;52.390;9.754;2023-04-25T07:30:03;10.50;91.20
30534;DHT22;17318;52.390;9.754;2023-04-25T07:32:29;10.40;91.10
30534;DHT22;17318;52.390;9.754;2023-04-25T07:34:55;10.50;91.10
30534;DHT22;17318;52.390;9.754;2023-04-25T07:37:21;10.30;90.70
30534;DHT22;17318;52.390;9.754;2023-04-25T07:39:47;10.40;90.80
30534;DHT22;17318;52.390;9.754;2023-04-25T07:42:13;10.30;90.70
30534;DHT22;17318;52.390;9.754;2023-04-25T07:44:39;10.40;91.00
30534;DHT22;17318;52.390;9.754;2023-04-25T07:47:09;10.60;90.60
30534;DHT22;17318;52.390;9.754;2023-04-25T07:49:36;10.60;90.10
30534;DHT22;17318;52.390;9.754;2023-04-25T07:52:03;10.80;90.20
30534;DHT22;17318;52.390;9.754;2023-04-25T07:54:29;10.70;90.10
30534;DHT22;17318;52.390;9.754;2023-04-25T07:56:55;11.00;89.60
30534;DHT22;17318;52.390;9.754;2023-04-25T07:59:21;10.70;89.20
30534;DHT22;17318;52.390;9.754;2023-04-25T08:01:47;10.70;89.30
30534;DHT22;17318;52.390;9.754;2023-04-25T08:04:13;11.00;89.40
30534;DHT22;17318;52.390;9.754;2023-04-25T08:06:38;11.20;88.90
30534;DHT22;17318;52.390;9.754;2023-04-25T08:09:06;10.90;87.30
30534;DHT22;17318;52.390;9.754;2023-04-25T08:11:31;10.90;87.30
30534;DHT22;17318;52.390;9.754;2023-04-25T08:13:57;10.80;87.50
30534;DHT22;17318;52.390;9.754;2023-04-25T08:16:23;11.30;87.20
30534;DHT22;17318;52.390;9.754;2023-04-25T08:18:50;11.60;85.80
30534;DHT22;17318;52.390;9.754;2023-04-25T08:21:16;12.00;84.50
30534;DHT22;17318;52.390;9.754;2023-04-25T08:23:41;13.20;84.60
30534;DHT22;17318;52.390;9.754;2023-04-25T08:26:07;13.80;78.30
30534;DHT22;17318;52.390;9.754;2023-04-25T08:28:33;14.70;81.10
30534;DHT22;17318;52.390;9.754;2023-04-25T08:30:59;15.60;77.80
30534;DHT22;17318;52.390;9.754;2023-04-25T08:33:25;15.50;75.60
30534;DHT22;17318;52.390;9.754;2023-04-25T08:35:51;16.20;71.70
30534;DHT22;17318;52.390;9.754;2023-04-25T08:38:17;16.50;71.50
30534;DHT22;17318;52.390;9.754;2023-04-25T08:40:44;16.70;69.10
30534;DHT22;17318;52.390;9.754;2023-04-25T08:43:13;16.10;67.60
30534;DHT22;17318;52.390;9.754;2023-04-25T08:45:41;16.30;67.00
30534;DHT22;17318;52.390;9.754;2023-04-25T08:48:15;15.60;67.10
30534;DHT22;17318;52.390;9.754;2023-04-25T08:50:52;15.50;67.20
30534;DHT22;17318;52.390;9.754;2023-04-25T08:53:29;14.10;66.90
30534;DHT22;17318;52.390;9.754;2023-04-25T08:55:56;13.60;69.10
30534;DHT22;17318;52.390;9.754;2023-04-25T08:58:23;13.30;69.60
30534;DHT22;17318;52.390;9.754;2023-04-25T09:00:50;13.40;70.20
30534;DHT22;17318;52.390;9.754;2023-04-25T09:03:17;13.10;71.30
30534;DHT22;17318;52.390;9.754;2023-04-25T09:05:43;13.20;71.70
30534;DHT22;17318;52.390;9.754;2023-04-25T09:08:09;12.90;72.20
30534;DHT22;17318;52.390;9.754;2023-04-25T09:10:36;12.70;72.10
30534;DHT22;17318;52.390;9.754;2023-04-25T09:13:12;12.50;73.10
30534;DHT22;17318;52.390;9.754;2023-04-25T09:15:50;13.00;72.80
30534;DHT22;17318;52.390;9.754;2023-04-25T09:18:30;13.60;70.90
30534;DHT22;17318;52.390;9.754;2023-04-25T09:21:11;14.50;66.60
30534;DHT22;17318;52.390;9.754;2023-04-25T09:23:47;15.50;63.70
30534;DHT22;17318;52.390;9.754;2023-04-25T09:26:17;15.90;62.80
30534;DHT22;17318;52.390;9.754;2023-04-25T09:28:43;16.80;60.70
30534;DHT22;17318;52.390;9.754;2023-04-25T09:31:12;18.40;59.10
30534;DHT22;17318;52.390;9.754;2023-04-25T09:33:46;19.20;55.00
30534;DHT22;17318;52.390;9.754;2023-04-25T09:36:13;18.60;53.80
30534;DHT22;17318;52.390;9.754;2023-04-25T09:38:43;19.10;52.90
30534;DHT22;17318;52.390;9.754;2023-04-25T09:41:10;19.90;52.50
30534;DHT22;17318;52.390;9.754;2023-04-25T09:43:36;20.00;50.50
30534;DHT22;17318;52.390;9.754;2023-04-25T09:46:02;19.40;49.60
30534;DHT22;17318;52.390;9.754;2023-04-25T09:48:29;19.10;49.80
30534;DHT22;17318;52.390;9.754;2023-04-25T09:51:12;19.90;48.10
30534;DHT22;17318;52.390;9.754;2023-04-25T09:53:43;19.80;47.00
30534;DHT22;17318;52.390;9.754;2023-04-25T09:56:10;19.40;48.20
30534;DHT22;17318;52.390;9.754;2023-04-25T09:58:38;20.00;48.30
30534;DHT22;17318;52.390;9.754;2023-04-25T10:01:09;19.90;46.70
30534;DHT22;17318;52.390;9.754;2023-04-25T10:03:36;19.20;46.00
30534;DHT22;17318;52.390;9.754;2023-04-25T10:06:04;18.40;47.50
30534;DHT22;17318;52.390;9.754;2023-04-25T10:08:35;17.90;48.50
30534;DHT22;17318;52.390;9.754;2023-04-25T10:11:02;19.70;49.90
30534;DHT22;17318;52.390;9.754;2023-04-25T10:13:28;19.00;47.90
30534;DHT22;17318;52.390;9.754;2023-04-25T10:15:55;18.30;48.30
30534;DHT22;17318;52.390;9.754;2023-04-25T10:18:21;17.70;48.90
30534;DHT22;17318;52.390;9.754;2023-04-25T10:20:46;16.70;50.00
30534;DHT22;17318;52.390;9.754;2023-04-25T10:23:12;15.90;50.80
30534;DHT22;17318;52.390;9.754;2023-04-25T10:25:39;16.10;51.70
30534;DHT22;17318;52.390;9.754;2023-04-25T10:28:05;16.00;51.90
30534;DHT22;17318;52.390;9.754;2023-04-25T10:30:31;15.90;52.40
30534;DHT22;17318;52.390;9.754;2023-04-25T10:32:58;15.20;53.20
30534;DHT22;17318;52.390;9.754;2023-04-25T10:35:24;15.00;53.50
30534;DHT22;17318;52.390;9.754;2023-04-25T10:40:25;14.40;55.10
30534;DHT22;17318;52.390;9.754;2023-04-25T10:42:52;13.40;56.10
30534;DHT22;17318;52.390;9.754;2023-04-25T10:45:18;13.90;56.70
30534;DHT22;17318;52.390;9.754;2023-04-25T10:47:45;14.00;55.90
30534;DHT22;17318;52.390;9.754;2023-04-25T10:50:10;13.60;57.00
30534;DHT22;17318;52.390;9.754;2023-04-25T10:52:38;13.60;56.50
30534;DHT22;17318;52.390;9.754;2023-04-25T10:55:04;13.80;56.60
30534;DHT22;17318;52.390;9.754;2023-04-25T11:00:08;13.70;57.80
30534;DHT22;17318;52.390;9.754;2023-04-25T11:05:19;13.40;57.60
30534;DHT22;17318;52.390;9.754;2023-04-25T11:07:51;13.10;57.30
30534;DHT22;17318;52.390;9.754;2023-04-25T11:10:29;13.20;57.80
30534;DHT22;17318;52.390;9.754;2023-04-25T11:12:55;13.30;57.90
30534;DHT22;17318;52.390;9.754;2023-04-25T11:15:21;13.50;57.60
30534;DHT22;17318;52.390;9.754;2023-04-25T11:17:46;13.60;56.50
30534;DHT22;17318;52.390;9.754;2023-04-25T11:20:12;13.60;54.50
30534;DHT22;17318;52.390;9.754;2023-04-25T11:22:39;13.90;54.50
30534;DHT22;17318;52.390;9.754;2023-04-25T11:25:09;13.90;53.50
30534;DHT22;17318;52.390;9.754;2023-04-25T11:27:39;13.90;54.10
30534;DHT22;17318;52.390;9.754;2023-04-25T11:30:15;14.00;55.30
30534;DHT22;17318;52.390;9.754;2023-04-25T11:32:41;13.70;56.40
30534;DHT22;17318;52.390;9.754;2023-04-25T11:35:08;13.50;57.00
30534;DHT22;17318;52.390;9.754;2023-04-25T11:37:34;13.40;57.80
30534;DHT22;17318;52.390;9.754;2023-04-25T11:40:00;13.10;59.00
30534;DHT22;17318;52.390;9.754;2023-04-25T11:42:26;12.90;61.90
30534;DHT22;17318;52.390;9.754;2023-04-25T11:44:52;12.50;68.60
30534;DHT22;17318;52.390;9.754;2023-04-25T11:47:17;12.40;71.40
30534;DHT22;17318;52.390;9.754;2023-04-25T11:49:43;12.30;75.70
30534;DHT22;17318;52.390;9.754;2023-04-25T11:52:08;12.30;77.50
30534;DHT22;17318;52.390;9.754;2023-04-25T11:54:35;11.90;78.20
30534;DHT22;17318;52.390;9.754;2023-04-25T11:57:01;12.00;78.30
30534;DHT22;17318;52.390;9.754;2023-04-25T11:59:26;12.30;79.10
30534;DHT22;17318;52.390;9.754;2023-04-25T12:01:52;12.50;79.70
30534;DHT22;17318;52.390;9.754;2023-04-25T12:04:19;11.80;78.80
30534;DHT22;17318;52.390;9.754;2023-04-25T12:06:45;11.90;80.20
30534;DHT22;17318;52.390;9.754;2023-04-25T12:09:15;12.00;78.50
30534;DHT22;17318;52.390;9.754;2023-04-25T12:11:41;12.10;79.20
30534;DHT22;17318;52.390;9.754;2023-04-25T12:14:07;12.40;79.80
30534;DHT22;17318;52.390;9.754;2023-04-25T12:16:41;12.50;75.90
30534;DHT22;17318;52.390;9.754;2023-04-25T12:19:07;12.50;73.30
30534;DHT22;17318;52.390;9.754;2023-04-25T12:21:32;12.70;70.70
30534;DHT22;17318;52.390;9.754;2023-04-25T12:26:48;12.60;64.20
30534;DHT22;17318;52.390;9.754;2023-04-25T12:29:21;12.50;64.10
30534;DHT22;17318;52.390;9.754;2023-04-25T12:31:46;12.60;63.50
30534;DHT22;17318;52.390;9.754;2023-04-25T12:34:12;12.90;63.40
30534;DHT22;17318;52.390;9.754;2023-04-25T12:36:38;12.70;62.20
30534;DHT22;17318;52.390;9.754;2023-04-25T12:39:04;12.80;63.00
30534;DHT22;17318;52.390;9.754;2023-04-25T12:41:30;12.90;62.60
30534;DHT22;17318;52.390;9.754;2023-04-25T12:43:56;12.80;64.40
30534;DHT22;17318;52.390;9.754;2023-04-25T12:46:21;12.80;64.40
30534;DHT22;17318;52.390;9.754;2023-04-25T12:48:48;12.80;64.10
30534;DHT22;17318;52.390;9.754;2023-04-25T12:51:14;12.40;64.90
30534;DHT22;17318;52.390;9.754;2023-04-25T12:53:40;12.20;64.20
30534;DHT22;17318;52.390;9.754;2023-04-25T12:56:06;12.30;63.90
30534;DHT22;17318;52.390;9.754;2023-04-25T12:58:32;12.30;63.80
30534;DHT22;17318;52.390;9.754;2023-04-25T13:00:59;12.30;62.40
30534;DHT22;17318;52.390;9.754;2023-04-25T13:03:24;12.50;62.60
30534;DHT22;17318;52.390;9.754;2023-04-25T13:05:51;12.50;63.30
30534;DHT22;17318;52.390;9.754;2023-04-25T13:08:20;12.10;63.80
30534;DHT22;17318;52.390;9.754;2023-04-25T13:10:49;11.90;65.60
30534;DHT22;17318;52.390;9.754;2023-04-25T13:13:15;12.00;65.30
30534;DHT22;17318;52.390;9.754;2023-04-25T13:15:41;11.60;64.90
30534;DHT22;17318;52.390;9.754;2023-04-25T13:18:07;11.50;66.80
30534;DHT22;17318;52.390;9.754;2023-04-25T13:20:33;11.30;68.60
30534;DHT22;17318;52.390;9.754;2023-04-25T13:22:58;11.40;69.30
30534;DHT22;17318;52.390;9.754;2023-04-25T13:25:24;11.30;71.10
30534;DHT22;17318;52.390;9.754;2023-04-25T13:27:50;11.10;73.10
30534;DHT22;17318;52.390;9.754;2023-04-25T13:30:16;11.20;75.00
30534;DHT22;17318;52.390;9.754;2023-04-25T13:32:41;11.10;75.30
30534;DHT22;17318;52.390;9.754;2023-04-25T13:35:08;11.40;75.50
30534;DHT22;17318;52.390;9.754;2023-04-25T13:37:34;11.50;75.90
30534;DHT22;17318;52.390;9.754;2023-04-25T13:40:00;11.50;76.10
30534;DHT22;17318;52.390;9.754;2023-04-25T13:42:26;11.30;76.70
30534;DHT22;17318;52.390;9.754;2023-04-25T13:44:51;11.40;77.20
30534;DHT22;17318;52.390;9.754;2023-04-25T13:47:17;11.40;76.80
30534;DHT22;17318;52.390;9.754;2023-04-25T13:49:42;11.40;76.60
30534;DHT22;17318;52.390;9.754;2023-04-25T13:52:08;11.60;76.30
30534;DHT22;17318;52.390;9.754;2023-04-25T13:54:33;11.70;76.10
30534;DHT22;17318;52.390;9.754;2023-04-25T13:56:59;11.90;75.70
30534;DHT22;17318;52.390;9.754;2023-04-25T13:59:25;11.70;76.60
30534;DHT22;17318;52.390;9.754;2023-04-25T14:01:53;11.70;80.30
30534;DHT22;17318;52.390;9.754;2023-04-25T14:04:19;11.80;80.70
30534;DHT22;17318;52.390;9.754;2023-04-25T14:06:44;11.70;80.60
30534;DHT22;17318;52.390;9.754;2023-04-25T14:09:10;11.70;79.30
30534;DHT22;17318;52.390;9.754;2023-04-25T14:11:37;11.70;79.30
30534;DHT22;17318;52.390;9.754;2023-04-25T14:14:02;11.60;79.80
30534;DHT22;17318;52.390;9.754;2023-04-25T14:16:29;11.50;80.20
30534;DHT22;17318;52.390;9.754;2023-04-25T14:18:57;11.60;79.30
30534;DHT22;17318;52.390;9.754;2023-04-25T14:21:23;11.90;78.30
30534;DHT22;17318;52.390;9.754;2023-04-25T14:23:48;11.80;76.60
30534;DHT22;17318;52.390;9.754;2023-04-25T14:26:14;11.70;76.60
30534;DHT22;17318;52.390;9.754;2023-04-25T14:28:39;11.80;77.50
30534;DHT22;17318;52.390;9.754;2023-04-25T14:31:05;12.10;77.50
30534;DHT22;17318;52.390;9.754;2023-04-25T14:33:31;12.10;75.50
30534;DHT22;17318;52.390;9.754;2023-04-25T14:35:56;12.10;76.70
30534;DHT22;17318;52.390;9.754;2023-04-25T14:38:22;12.50;76.80
30534;DHT22;17318;52.390;9.754;2023-04-25T14:40:50;12.00;74.80
30534;DHT22;17318;52.390;9.754;2023-04-25T14:43:16;12.20;75.70
30534;DHT22;17318;52.390;9.754;2023-04-25T14:45:41;12.40;76.50
30534;DHT22;17318;52.390;9.754;2023-04-25T14:48:07;12.50;76.00
30534;DHT22;17318;52.390;9.754;2023-04-25T14:50:33;12.70;75.60
30534;DHT22;17318;52.390;9.754;2023-04-25T14:52:58;12.60;73.90
30534;DHT22;17318;52.390;9.754;2023-04-25T14:55:26;12.70;73.70
30534;DHT22;17318;52.390;9.754;2023-04-25T14:57:54;12.80;73.60
30534;DHT22;17318;52.390;9.754;2023-04-25T15:00:20;12.80;73.00
30534;DHT22;17318;52.390;9.754;2023-04-25T15:02:50;12.90;73.70
30534;DHT22;17318;52.390;9.754;2023-04-25T15:05:15;12.50;73.70
30534;DHT22;17318;52.390;9.754;2023-04-25T15:07:41;12.70;77.50
30534;DHT22;17318;52.390;9.754;2023-04-25T15:10:07;12.70;77.50
30534;DHT22;17318;52.390;9.754;2023-04-25T15:12:45;12.60;78.20
30534;DHT22;17318;52.390;9.754;2023-04-25T15:15:11;12.50;79.40
30534;DHT22;17318;52.390;9.754;2023-04-25T15:17:37;11.80;82.60
30534;DHT22;17318;52.390;9.754;2023-04-25T15:20:03;11.20;87.10
30534;DHT22;17318;52.390;9.754;2023-04-25T15:22:30;10.90;87.00
30534;DHT22;17318;52.390;9.754;2023-04-25T15:24:56;11.00;86.10
30534;DHT22;17318;52.390;9.754;2023-04-25T15:27:22;11.30;87.00
30534;DHT22;17318;52.390;9.754;2023-04-25T15:29:48;11.50;85.50
30534;DHT22;17318;52.390;9.754;2023-04-25T15:32:14;11.60;86.80
30534;DHT22;17318;52.390;9.754;2023-04-25T15:34:39;11.60;87.30
30534;DHT22;17318;52.390;9.754;2023-04-25T15:37:06;11.60;86.50
30534;DHT22;17318;52.390;9.754;2023-04-25T15:39:31;11.90;86.90
30534;DHT22;17318;52.390;9.754;2023-04-25T15:41:57;12.00;87.80